createdAt,value
2023-03-12T00:05:30.549Z,68.56
2023-03-12T00:08:16.472Z,70.59
2023-03-12T00:11:02.295Z,70.27
2023-03-12T00:13:50.303Z,70.14
2023-03-12T00:16:36.169Z,70.08
2023-03-12T00:19:22.117Z,68.83
2023-03-12T00:22:08.204Z,69.15
2023-03-12T00:24:54.039Z,69.06
2023-03-12T00:27:39.882Z,69.45
2023-03-12T00:30:25.816Z,69.86
2023-03-12T00:33:11.698Z,69.84
2023-03-12T00:35:57.682Z,69.73
2023-03-12T00:38:43.623Z,70.15
2023-03-12T00:41:29.474Z,69.55
2023-03-12T00:44:15.332Z,69.35
2023-03-12T00:47:01.398Z,69.90
2023-03-12T00:49:47.546Z,70.27
2023-03-12T00:52:33.477Z,71.92
2023-03-12T00:55:19.377Z,72.27
2023-03-12T00:58:05.198Z,72.21
2023-03-12T01:00:51.051Z,72.94
2023-03-12T01:03:37.164Z,72.03
2023-03-12T01:06:23.230Z,72.85
2023-03-12T01:09:09.173Z,72.49
2023-03-12T01:11:55.163Z,73.37
2023-03-12T01:14:41.215Z,73.06
2023-03-12T01:17:27.039Z,73.08
2023-03-12T01:20:13.001Z,72.16
2023-03-12T01:22:58.694Z,72.70
2023-03-12T01:25:44.787Z,71.70
2023-03-12T01:28:30.955Z,70.67
2023-03-12T01:31:18.825Z,72.01
2023-03-12T01:34:04.819Z,71.62
2023-03-12T01:36:50.626Z,71.83
2023-03-12T01:39:36.522Z,74.45
2023-03-12T01:42:22.431Z,74.04
2023-03-12T01:45:08.182Z,75.59
2023-03-12T01:47:54.069Z,73.67
2023-03-12T01:50:39.969Z,75.17
2023-03-12T01:53:25.902Z,74.48
2023-03-12T01:56:11.921Z,74.43
2023-03-12T01:58:57.729Z,74.07
2023-03-12T02:01:43.543Z,74.10
2023-03-12T02:04:29.457Z,72.14
2023-03-12T02:07:15.238Z,71.70
2023-03-12T02:10:01.178Z,70.56
2023-03-12T02:12:47.039Z,69.21
2023-03-12T02:15:32.905Z,69.91
2023-03-12T02:18:18.863Z,69.30
2023-03-12T02:21:06.120Z,70.44
2023-03-12T02:23:51.954Z,70.62
2023-03-12T02:26:37.974Z,70.51
2023-03-12T02:29:23.762Z,70.26
2023-03-12T02:32:09.748Z,70.28
2023-03-12T02:34:55.654Z,70.14
2023-03-12T02:37:41.311Z,71.91
2023-03-12T02:40:27.251Z,72.71
2023-03-12T02:43:12.960Z,71.74
2023-03-12T02:45:58.971Z,70.49
2023-03-12T02:48:44.941Z,69.92
2023-03-12T02:51:30.668Z,68.67
2023-03-12T02:54:16.567Z,67.35
2023-03-12T02:57:02.412Z,68.29
2023-03-12T02:59:48.354Z,66.35
2023-03-12T03:02:34.346Z,66.06
2023-03-12T03:05:20.061Z,66.08
2023-03-12T03:08:05.981Z,66.21
2023-03-12T03:10:51.843Z,65.34
2023-03-12T03:13:37.561Z,64.47
2023-03-12T03:16:23.451Z,64.53
2023-03-12T03:19:09.299Z,63.99
2023-03-12T03:21:55.267Z,64.24
2023-03-12T03:24:41.222Z,63.85
2023-03-12T03:27:26.991Z,65.02
2023-03-12T03:30:12.804Z,66.41
2023-03-12T03:32:58.821Z,66.14
2023-03-12T03:35:44.677Z,66.36
2023-03-12T03:38:30.690Z,66.52
2023-03-12T03:41:16.498Z,67.53
2023-03-12T03:44:02.391Z,67.38
2023-03-12T03:46:48.288Z,67.11
2023-03-12T03:49:34.010Z,67.31
2023-03-12T03:52:19.884Z,66.82
2023-03-12T03:55:05.616Z,66.40
2023-03-12T03:57:51.409Z,66.53
2023-03-12T04:00:37.357Z,65.86
2023-03-12T04:03:23.295Z,65.75
2023-03-12T04:06:09.150Z,66.95
2023-03-12T04:08:55.130Z,68.04
2023-03-12T04:11:40.975Z,69.77
2023-03-12T04:14:26.916Z,72.40
2023-03-12T04:17:12.920Z,75.53
2023-03-12T04:19:58.796Z,76.23
2023-03-12T04:22:44.906Z,79.44
2023-03-12T04:25:30.727Z,80.26
2023-03-12T04:28:16.539Z,81.81
2023-03-12T04:31:02.589Z,79.53
2023-03-12T04:33:48.471Z,78.48
2023-03-12T04:36:34.361Z,78.27
2023-03-12T04:39:20.269Z,76.16
2023-03-12T04:42:06.144Z,76.94
2023-03-12T04:44:52.195Z,75.74
2023-03-12T04:47:37.935Z,74.93
2023-03-12T04:50:23.934Z,74.21
2023-03-12T04:53:09.786Z,74.71
2023-03-12T04:55:55.794Z,74.45
2023-03-12T04:58:41.637Z,75.04
2023-03-12T05:01:27.611Z,76.68
2023-03-12T05:04:13.558Z,74.29
2023-03-12T05:06:59.513Z,74.71
2023-03-12T05:09:45.338Z,74.15
2023-03-12T05:12:31.280Z,73.88
2023-03-12T05:15:17.138Z,74.05
2023-03-12T05:18:02.982Z,72.64
2023-03-12T05:20:48.712Z,73.24
2023-03-12T05:23:34.636Z,73.07
2023-03-12T05:26:20.511Z,74.22
2023-03-12T05:29:06.379Z,72.93
2023-03-12T05:31:52.720Z,72.16
2023-03-12T05:34:38.671Z,72.31
2023-03-12T05:37:24.465Z,72.43
2023-03-12T05:40:10.463Z,71.40
2023-03-12T05:42:56.323Z,71.74
2023-03-12T05:45:42.193Z,71.77
2023-03-12T05:48:28.221Z,71.83
2023-03-12T05:51:14.086Z,72.13
2023-03-12T05:53:59.798Z,73.09
2023-03-12T05:56:45.809Z,72.30
2023-03-12T05:59:31.510Z,71.55
2023-03-12T06:02:17.532Z,72.66
2023-03-12T06:05:03.543Z,71.79
2023-03-12T06:07:49.439Z,72.03
2023-03-12T06:10:35.247Z,73.00
2023-03-12T06:13:21.117Z,72.97
2023-03-12T06:16:06.893Z,74.04
2023-03-12T06:18:52.770Z,72.92
2023-03-12T06:21:38.540Z,73.22
2023-03-12T06:24:24.386Z,75.24
2023-03-12T06:27:10.371Z,75.59
2023-03-12T06:29:56.272Z,76.71
2023-03-12T06:32:42.166Z,78.44
2023-03-12T06:35:28.195Z,76.68
2023-03-12T06:38:14.303Z,76.62
2023-03-12T06:41:00.306Z,75.39
2023-03-12T06:43:46.125Z,75.64
2023-03-12T06:46:32.003Z,78.73
2023-03-12T06:49:17.989Z,78.64
2023-03-12T06:52:03.907Z,77.28
2023-03-12T06:54:49.767Z,75.36
2023-03-12T06:57:35.521Z,75.15
2023-03-12T07:00:21.315Z,75.03
2023-03-12T07:03:07.235Z,73.62
2023-03-12T07:05:53.218Z,73.81
2023-03-12T07:08:39.184Z,74.51
2023-03-12T07:11:25.046Z,74.20
2023-03-12T07:14:10.893Z,73.82
2023-03-12T07:16:56.864Z,72.71
2023-03-12T07:19:42.672Z,72.26
2023-03-12T07:22:28.495Z,72.06
2023-03-12T07:25:14.369Z,72.01
2023-03-12T07:28:00.287Z,70.46
2023-03-12T07:30:46.086Z,69.85
2023-03-12T07:33:31.932Z,70.31
2023-03-12T07:36:18.205Z,71.42
2023-03-12T07:39:04.486Z,72.05
2023-03-12T07:41:50.472Z,72.13
2023-03-12T07:44:36.725Z,72.88
2023-03-12T07:47:24.461Z,73.12
2023-03-12T07:50:10.484Z,72.40
2023-03-12T07:52:56.348Z,72.33
2023-03-12T07:55:42.342Z,73.54
2023-03-12T07:58:28.264Z,75.26
2023-03-12T08:01:14.230Z,75.61
2023-03-12T08:04:00.026Z,75.98
2023-03-12T08:06:46.050Z,74.70
2023-03-12T08:09:31.926Z,75.05
2023-03-12T08:12:17.947Z,73.80
2023-03-12T08:15:04.057Z,74.52
2023-03-12T08:17:49.993Z,74.02
2023-03-12T08:20:37.917Z,75.04
2023-03-12T08:23:23.749Z,75.81
2023-03-12T08:26:09.591Z,76.34
2023-03-12T08:28:55.349Z,73.84
2023-03-12T08:31:53.801Z,74.50
2023-03-12T08:34:47.391Z,75.48
2023-03-12T08:37:33.118Z,75.26
2023-03-12T08:40:19.110Z,77.63
2023-03-12T08:43:04.971Z,76.50
2023-03-12T08:45:50.804Z,76.72
2023-03-12T08:48:36.870Z,76.81
2023-03-12T08:51:22.697Z,75.72
2023-03-12T08:54:08.590Z,75.73
2023-03-12T08:56:54.470Z,76.68
2023-03-12T08:59:40.333Z,75.39
2023-03-12T09:02:26.204Z,75.21
2023-03-12T09:05:12.106Z,73.94
2023-03-12T09:07:57.942Z,72.44
2023-03-12T09:10:43.798Z,71.78
2023-03-12T09:13:40.695Z,74.87
2023-03-12T09:16:35.749Z,76.41
2023-03-12T09:19:21.663Z,76.94
2023-03-12T09:22:07.413Z,77.33
2023-03-12T09:24:53.268Z,78.17
2023-03-12T09:27:39.149Z,79.71
2023-03-12T09:30:24.979Z,80.32
2023-03-12T09:33:10.971Z,82.22
2023-03-12T09:35:56.896Z,84.59
2023-03-12T09:38:42.819Z,80.14
2023-03-12T09:41:28.527Z,78.24
2023-03-12T09:44:14.417Z,77.91
2023-03-12T09:47:00.408Z,77.60
2023-03-12T09:49:46.263Z,74.86
2023-03-12T09:52:32.192Z,77.39
2023-03-12T09:55:18.027Z,77.80
2023-03-12T09:58:03.815Z,74.94
2023-03-12T10:00:49.767Z,75.58
2023-03-12T10:03:35.549Z,75.86
2023-03-12T10:06:21.481Z,77.88
2023-03-12T10:09:07.588Z,79.19
2023-03-12T10:11:53.554Z,78.25
2023-03-12T10:14:39.354Z,76.18
2023-03-12T10:17:25.263Z,74.79
2023-03-12T10:20:11.010Z,73.70
2023-03-12T10:22:56.965Z,72.68
2023-03-12T10:25:42.885Z,71.11
2023-03-12T10:28:28.694Z,72.81
2023-03-12T10:31:14.684Z,75.01
2023-03-12T10:34:00.595Z,70.52
2023-03-12T10:36:46.512Z,70.21
2023-03-12T10:39:32.468Z,70.39
2023-03-12T10:42:18.321Z,70.96
2023-03-12T10:45:04.273Z,67.82
2023-03-12T10:47:50.293Z,71.12
2023-03-12T10:50:36.291Z,69.06
2023-03-12T10:53:22.345Z,69.82
2023-03-12T10:56:08.281Z,70.58
2023-03-12T10:58:54.258Z,71.48
2023-03-12T11:01:40.197Z,69.30
2023-03-12T11:04:28.708Z,67.60
2023-03-12T11:07:16.076Z,68.91
2023-03-12T11:10:02.051Z,68.37
2023-03-12T11:12:47.939Z,64.71
2023-03-12T11:15:34.007Z,65.92
2023-03-12T11:18:19.963Z,65.57
2023-03-12T11:21:05.845Z,65.78
2023-03-12T11:23:51.763Z,63.11
2023-03-12T11:26:37.658Z,63.04
2023-03-12T11:29:23.650Z,62.61
2023-03-12T11:32:09.616Z,65.50
2023-03-12T11:34:55.490Z,60.99
2023-03-12T11:37:41.369Z,63.22
2023-03-12T11:40:27.367Z,61.00
2023-03-12T11:43:13.195Z,62.67
2023-03-12T11:45:59.274Z,60.91
2023-03-12T11:48:45.223Z,61.99
2023-03-12T11:51:31.463Z,62.48
2023-03-12T11:54:17.394Z,60.45
2023-03-12T11:57:03.208Z,61.21
2023-03-12T11:59:49.043Z,60.29
2023-03-12T12:02:35.027Z,59.69
2023-03-12T12:05:20.845Z,60.50
2023-03-12T12:08:06.703Z,57.70
2023-03-12T12:10:52.600Z,60.11
2023-03-12T12:13:38.463Z,61.47
2023-03-12T12:16:24.475Z,60.86
2023-03-12T12:19:10.344Z,62.45
2023-03-12T12:21:56.268Z,63.21
2023-03-12T12:24:42.301Z,58.64
2023-03-12T12:27:28.122Z,58.98
2023-03-12T12:30:13.956Z,59.57
2023-03-12T12:32:59.897Z,56.60
2023-03-12T12:35:45.806Z,54.94
2023-03-12T12:38:31.828Z,56.47
2023-03-12T12:41:17.557Z,58.38
2023-03-12T12:44:03.491Z,56.79
2023-03-12T12:46:49.312Z,57.41
2023-03-12T12:49:35.134Z,54.94
2023-03-12T12:52:21.026Z,56.29
2023-03-12T12:55:06.851Z,54.42
2023-03-12T12:57:52.706Z,55.88
2023-03-12T13:00:38.622Z,54.71
2023-03-12T13:03:24.481Z,56.00
2023-03-12T13:06:10.269Z,53.70
2023-03-12T13:08:56.050Z,53.78
2023-03-12T13:11:41.986Z,49.78
2023-03-12T13:14:27.877Z,51.03
2023-03-12T13:17:13.678Z,53.14
2023-03-12T13:20:01.760Z,52.43
2023-03-12T13:22:48.009Z,52.95
2023-03-12T13:25:33.865Z,51.64
2023-03-12T13:28:19.647Z,53.03
2023-03-12T13:31:05.582Z,51.82
2023-03-12T13:33:51.392Z,52.74
2023-03-12T13:36:37.399Z,55.08
2023-03-12T13:39:23.348Z,55.38
2023-03-12T13:42:09.168Z,53.79
2023-03-12T13:44:54.999Z,53.75
2023-03-12T13:47:40.806Z,53.41
2023-03-12T13:50:26.713Z,50.53
2023-03-12T13:53:12.528Z,52.09
2023-03-12T13:55:58.427Z,52.36
2023-03-12T13:58:44.195Z,52.77
2023-03-12T14:01:30.051Z,51.20
2023-03-12T14:04:15.986Z,51.78
2023-03-12T14:07:02.278Z,52.73
2023-03-12T14:09:48.127Z,52.26
2023-03-12T14:12:34.011Z,52.70
2023-03-12T14:15:19.960Z,52.83
2023-03-12T14:18:05.861Z,52.14
2023-03-12T14:20:51.842Z,50.80
2023-03-12T14:23:37.717Z,50.84
2023-03-12T14:26:25.526Z,50.38
2023-03-12T14:29:11.548Z,50.78
2023-03-12T14:31:57.707Z,50.70
2023-03-12T14:34:43.773Z,50.93
2023-03-12T14:37:29.617Z,51.77
2023-03-12T14:40:15.576Z,50.19
2023-03-12T14:43:03.515Z,52.22
2023-03-12T14:45:49.414Z,49.89
2023-03-12T14:48:35.311Z,51.00
2023-03-12T14:51:23.952Z,50.88
2023-03-12T14:54:10.167Z,49.64
2023-03-12T14:56:56.086Z,49.19
2023-03-12T14:59:43.967Z,48.08
2023-03-12T15:02:29.903Z,48.72
2023-03-12T15:05:15.822Z,48.48
2023-03-12T15:08:01.984Z,48.28
2023-03-12T15:10:47.742Z,46.74
2023-03-12T15:13:33.622Z,47.56
2023-03-12T15:16:19.527Z,46.83
2023-03-12T15:19:05.429Z,48.31
2023-03-12T15:21:53.334Z,50.38
2023-03-12T15:24:39.218Z,50.51
2023-03-12T15:27:25.002Z,50.57
2023-03-12T15:30:10.993Z,49.85
2023-03-12T15:32:56.764Z,50.05
2023-03-12T15:35:42.746Z,50.72
2023-03-12T15:38:29.107Z,50.14
2023-03-12T15:41:14.971Z,49.49
2023-03-12T15:44:00.993Z,49.79
2023-03-12T15:46:48.516Z,47.78
2023-03-12T15:49:34.482Z,48.55
2023-03-12T15:52:20.582Z,47.71
2023-03-12T15:55:06.486Z,46.73
2023-03-12T15:57:52.381Z,47.78
2023-03-12T16:00:38.561Z,48.13
2023-03-12T16:03:24.397Z,47.81
2023-03-12T16:06:10.285Z,48.35
2023-03-12T16:08:56.253Z,48.81
2023-03-12T16:11:42.172Z,49.34
2023-03-12T16:14:28.118Z,50.18
2023-03-12T16:17:14.081Z,51.37
2023-03-12T16:19:59.862Z,50.94
2023-03-12T16:22:45.846Z,50.22
2023-03-12T16:25:31.690Z,50.60
2023-03-12T16:28:19.631Z,50.87
2023-03-12T16:31:05.449Z,51.09
2023-03-12T16:33:51.261Z,51.37
2023-03-12T16:36:37.194Z,50.75
2023-03-12T16:39:23.089Z,48.67
2023-03-12T16:42:08.848Z,49.87
2023-03-12T16:44:54.957Z,49.63
2023-03-12T16:47:41.393Z,50.35
2023-03-12T16:50:27.282Z,49.98
2023-03-12T16:53:13.390Z,48.70
2023-03-12T16:56:01.267Z,49.44
2023-03-12T16:58:47.176Z,47.58
2023-03-12T17:01:33.135Z,48.52
2023-03-12T17:04:19.310Z,47.04
2023-03-12T17:07:05.379Z,47.85
2023-03-12T17:09:51.344Z,46.75
2023-03-12T17:12:37.195Z,46.67
2023-03-12T17:15:23.025Z,46.44
2023-03-12T17:18:08.863Z,47.50
2023-03-12T17:20:54.784Z,47.33
2023-03-12T17:23:40.883Z,46.79
2023-03-12T17:26:26.911Z,47.26
2023-03-12T17:29:12.833Z,47.60
2023-03-12T17:31:58.835Z,48.33
2023-03-12T17:34:44.677Z,48.04
2023-03-12T17:37:30.620Z,48.63
2023-03-12T17:40:16.510Z,48.30
2023-03-12T17:43:02.399Z,48.36
2023-03-12T17:45:48.303Z,48.50
2023-03-12T17:48:34.227Z,48.37
2023-03-12T17:51:20.247Z,48.46
2023-03-12T17:54:06.078Z,47.74
2023-03-12T17:56:51.962Z,48.86
2023-03-12T17:59:37.962Z,48.42
2023-03-12T18:02:23.818Z,48.24
2023-03-12T18:05:09.793Z,49.49
2023-03-12T18:07:56.156Z,49.48
2023-03-12T18:10:42.180Z,49.60
2023-03-12T18:13:28.226Z,50.02
2023-03-12T18:16:14.299Z,49.25
2023-03-12T18:19:00.565Z,49.71
2023-03-12T18:21:46.538Z,50.66
2023-03-12T18:24:32.420Z,50.37
2023-03-12T18:27:18.266Z,50.54
2023-03-12T18:30:04.255Z,51.21
2023-03-12T18:32:50.185Z,52.07
2023-03-12T18:35:36.090Z,53.33
2023-03-12T18:38:21.951Z,52.91
2023-03-12T18:41:07.995Z,52.46
2023-03-12T18:43:53.857Z,52.85
2023-03-12T18:46:39.913Z,53.32
2023-03-12T18:49:25.823Z,53.82
2023-03-12T18:52:11.764Z,54.46
2023-03-12T18:54:57.620Z,54.90
2023-03-12T18:57:43.596Z,54.31
2023-03-12T19:00:29.459Z,53.88
2023-03-12T19:03:15.584Z,53.82
2023-03-12T19:06:01.653Z,54.17
2023-03-12T19:08:47.513Z,54.11
2023-03-12T19:11:33.533Z,53.75
2023-03-12T19:14:19.592Z,54.31
2023-03-12T19:17:05.301Z,54.52
2023-03-12T19:19:51.159Z,54.85
2023-03-12T19:22:37.132Z,54.74
2023-03-12T19:25:23.485Z,54.87
2023-03-12T19:28:09.487Z,55.08
2023-03-12T19:30:55.287Z,54.16
2023-03-12T19:33:41.203Z,55.61
2023-03-12T19:36:27.066Z,55.60
2023-03-12T19:39:21.032Z,55.32
2023-03-12T19:42:07.890Z,55.35
2023-03-12T19:44:53.826Z,55.19
2023-03-12T19:47:39.873Z,54.92
2023-03-12T19:50:25.632Z,54.61
2023-03-12T19:53:11.457Z,54.82
2023-03-12T19:55:57.259Z,55.44
2023-03-12T19:58:43.219Z,54.82
2023-03-12T20:01:29.133Z,55.30
2023-03-12T20:04:14.861Z,55.73
2023-03-12T20:07:00.799Z,55.21
2023-03-12T20:09:46.796Z,56.29
2023-03-12T20:12:32.545Z,56.74
2023-03-12T20:15:18.469Z,56.08
2023-03-12T20:18:04.369Z,56.01
2023-03-12T20:20:50.183Z,56.97
2023-03-12T20:23:36.165Z,56.88
2023-03-12T20:26:21.978Z,56.61
2023-03-12T20:29:07.966Z,55.93
2023-03-12T20:31:53.842Z,55.72
2023-03-12T20:34:39.918Z,55.47
2023-03-12T20:37:25.836Z,55.63
2023-03-12T20:40:11.603Z,55.45
2023-03-12T20:42:57.634Z,55.15
2023-03-12T20:45:43.682Z,55.78
2023-03-12T20:48:29.625Z,56.16
2023-03-12T20:51:15.519Z,55.88
2023-03-12T20:54:01.383Z,55.64
2023-03-12T20:56:47.159Z,55.79
2023-03-12T20:59:33.086Z,56.27
2023-03-12T21:02:18.941Z,55.40
2023-03-12T21:05:05.019Z,55.58
2023-03-12T21:07:50.915Z,55.93
2023-03-12T21:10:36.743Z,56.05
2023-03-12T21:13:22.744Z,55.33
2023-03-12T21:16:08.579Z,55.29
2023-03-12T21:18:54.405Z,55.61
2023-03-12T21:21:40.322Z,55.38
2023-03-12T21:24:26.169Z,55.28
2023-03-12T21:27:12.078Z,54.24
2023-03-12T21:29:58.025Z,54.38
2023-03-12T21:32:43.836Z,53.58
2023-03-12T21:35:29.832Z,54.42
2023-03-12T21:38:15.758Z,53.30
2023-03-12T21:41:01.830Z,53.12
2023-03-12T21:43:47.962Z,52.77
2023-03-12T21:46:33.905Z,53.52
2023-03-12T21:49:19.892Z,53.06
2023-03-12T21:52:05.713Z,53.00
2023-03-12T21:54:51.558Z,53.72
2023-03-12T21:57:37.388Z,54.59
2023-03-12T22:00:23.183Z,54.59
2023-03-12T22:03:09.070Z,55.71
2023-03-12T22:05:55.016Z,55.34
2023-03-12T22:08:40.831Z,54.66
2023-03-12T22:11:26.637Z,55.14
2023-03-12T22:14:12.509Z,55.72
2023-03-12T22:16:58.334Z,55.66
2023-03-12T22:19:44.313Z,55.07
2023-03-12T22:22:30.146Z,55.83
2023-03-12T22:25:15.981Z,55.30
2023-03-12T22:28:01.839Z,56.00
2023-03-12T22:30:47.758Z,56.54
2023-03-12T22:33:33.577Z,56.11
2023-03-12T22:36:20.743Z,57.32
2023-03-12T22:39:06.814Z,57.31
2023-03-12T22:41:52.611Z,56.80
2023-03-12T22:44:38.345Z,57.42
2023-03-12T22:47:24.465Z,58.47
2023-03-12T22:50:10.286Z,58.49
2023-03-12T22:52:56.192Z,58.07
2023-03-12T22:55:42.127Z,58.23
2023-03-12T22:58:28.041Z,57.25
2023-03-12T23:01:13.804Z,58.67
2023-03-12T23:03:59.875Z,58.13
2023-03-12T23:06:45.982Z,57.86
2023-03-12T23:09:31.966Z,56.56
2023-03-12T23:12:17.822Z,57.07
2023-03-12T23:15:03.792Z,56.25
2023-03-12T23:17:49.804Z,56.48
2023-03-12T23:20:37.584Z,55.64
2023-03-12T23:23:23.474Z,56.78
2023-03-12T23:26:09.419Z,57.13
2023-03-12T23:28:55.291Z,57.60
2023-03-12T23:31:41.278Z,58.38
2023-03-12T23:34:27.210Z,58.78
2023-03-12T23:37:13.036Z,58.97
2023-03-12T23:39:58.794Z,59.87
2023-03-12T23:42:44.702Z,60.06
2023-03-12T23:45:30.653Z,59.58
2023-03-12T23:48:16.554Z,58.72
2023-03-12T23:51:02.442Z,58.60
2023-03-12T23:53:48.434Z,59.22
2023-03-12T23:56:34.509Z,59.01
2023-03-12T23:59:20.375Z,58.94
